METAR Data
IDs: Format: Raw Decoded Include TAF

Data at: 0155 UTC 24 Sep 2018

KVVV 240135Z AUTO 13008KT 10SM CLR 19/11 A2978 RMK AO2
KVVV 240115Z AUTO 13007KT 10SM CLR 19/11 A2979 RMK AO2
KVVV 240055Z AUTO 15006KT 10SM CLR 21/10 A2979 RMK AO2
KVVV 240035Z AUTO 16006KT 10SM CLR 22/09 A2979 RMK AO2
KVVV 240016Z AUTO 16006KT 10SM CLR 23/09 A2978 RMK AO2
KVVV 240015Z AUTO 16007KT 10SM CLR 23/09 A2978 RMK AO2
KVVV 232355Z AUTO 17010G16KT 10SM CLR 23/09 A2978 RMK AO2
KVVV 232335Z AUTO 17009G15KT 10SM CLR 24/09 A2977 RMK AO2
KVVV 232315Z AUTO 17009G15KT 10SM CLR 25/09 A2976 RMK AO2
KVVV 232255Z AUTO 17010G17KT 10SM CLR 26/09 A2976 RMK AO2
KVVV 232235Z AUTO 16012G20KT 10SM CLR 26/09 A2976 RMK AO2
KVVV 232215Z AUTO 16013G20KT 10SM CLR 26/09 A2976 RMK AO2
KVVV 232155Z AUTO 16012G19KT 10SM CLR 26/11 A2976 RMK AO2
KVVV 232135Z AUTO 15011G16KT 10SM CLR 27/11 A2977 RMK AO2
KVVV 232115Z AUTO 16010G17KT 10SM CLR 27/11 A2977 RMK AO2
KVVV 232055Z AUTO 15012G21KT 10SM CLR 27/11 A2977 RMK AO2
KVVV 232035Z AUTO 15010G16KT 10SM CLR 26/12 A2978 RMK AO2
KVVV 232015Z AUTO 13011KT 10SM CLR 24/12 A2979 RMK AO2
KVVV 231955Z AUTO 13013G17KT 10SM CLR 24/13 A2981 RMK AO2
KVVV 231936Z AUTO 12015KT 10SM CLR 23/12 A2982 RMK AO2
KVVV 231935Z AUTO 12014KT 10SM CLR 23/12 A2982 RMK AO2
KVVV 231915Z AUTO 12016G19KT 10SM CLR 22/12 A2983 RMK AO2
KVVV 231855Z AUTO 12017G22KT 10SM CLR 21/11 A2984 RMK AO2
KVVV 231836Z AUTO 11016G21KT 10SM CLR 21/11 A2986 RMK AO2
KVVV 231835Z AUTO 11014G21KT 10SM CLR 21/11 A2986 RMK AO2
KVVV 231815Z AUTO 13013KT 10SM CLR 20/11 A2987 RMK AO2
KVVV 231755Z AUTO 11014G17KT 10SM CLR 20/11 A2988 RMK AO2
KVVV 231736Z AUTO 12010G15KT 10SM CLR 19/11 A2990 RMK AO2
KVVV 231735Z AUTO 12010G15KT 10SM CLR 19/11 A2990 RMK AO2
KVVV 231715Z AUTO 12008KT 10SM CLR 19/11 A2990 RMK AO2
KVVV 231655Z AUTO 11010KT 10SM CLR 19/11 A2992 RMK AO2
KVVV 231636Z AUTO 10007KT 10SM CLR 18/11 A2992 RMK AO2
KVVV 231635Z AUTO 11008KT 10SM CLR 18/11 A2992 RMK AO2
KVVV 231615Z AUTO 14005KT 10SM CLR 18/11 A2993 RMK AO2
KVVV 231555Z AUTO 12004KT 10SM CLR 17/11 A2994 RMK AO2
KVVV 231535Z AUTO 00000KT 10SM CLR 16/11 A2994 RMK AO2
KVVV 231515Z AUTO 00000KT 10SM CLR 15/10 A2995 RMK AO2
KVVV 231455Z AUTO 00000KT 10SM CLR 14/10 A2995 RMK AO2
KVVV 231435Z AUTO 00000KT 10SM CLR 13/10 A2995 RMK AO2
KVVV 231415Z AUTO 00000KT 10SM CLR 12/09 A2995 RMK AO2
KVVV 231355Z AUTO 00000KT 10SM CLR 11/08 A2995 RMK AO2
KVVV 231335Z AUTO 00000KT 10SM CLR 10/08 A2996 RMK AO2
KVVV 231315Z AUTO 00000KT 10SM CLR 09/08 A2996 RMK AO2
KVVV 231255Z AUTO 00000KT 10SM CLR 09/08 A2995 RMK AO2
KVVV 231235Z AUTO 12004KT 10SM CLR 08/07 A2995 RMK AO2
KVVV 231215Z AUTO 12006KT 10SM CLR 09/07 A2994 RMK AO2
KVVV 231155Z AUTO 12005KT 10SM CLR 09/07 A2994 RMK AO2
KVVV 231135Z AUTO 14006KT 10SM CLR 09/08 A2994 RMK AO2
KVVV 231115Z AUTO 12005KT 10SM CLR 09/08 A2994 RMK AO2
KVVV 231055Z AUTO 11006KT 10SM CLR 09/08 A2994 RMK AO2
KVVV 231035Z AUTO 10006KT 10SM CLR 09/08 A2994 RMK AO2
KVVV 231015Z AUTO 10007KT 10SM CLR 09/07 A2994 RMK AO2
KVVV 230955Z AUTO 09005KT 10SM CLR 09/08 A2995 RMK AO2
KVVV 230935Z AUTO 09005KT 10SM CLR 09/08 A2994 RMK AO2
KVVV 230915Z AUTO 08003KT 10SM CLR 10/08 A2994 RMK AO2
KVVV 230855Z AUTO 12004KT 10SM CLR 10/08 A2994 RMK AO2
KVVV 230835Z AUTO 11004KT 10SM CLR 10/08 A2993 RMK AO2
KVVV 230815Z AUTO 13005KT 10SM CLR 10/08 A2993 RMK AO2
KVVV 230755Z AUTO 13004KT 10SM CLR 11/08 A2994 RMK AO2
KVVV 230735Z AUTO 13005KT 10SM CLR 11/08 A2993 RMK AO2
KVVV 230715Z AUTO 13006KT 10SM CLR 11/08 A2994 RMK AO2
KVVV 230655Z AUTO 13007KT 10SM CLR 11/08 A2994 RMK AO2
KVVV 230635Z AUTO 13006KT 10SM CLR 11/08 A2994 RMK AO2
KVVV 230615Z AUTO 14007KT 10SM CLR 11/08 A2994 RMK AO2
KVVV 230555Z AUTO 13007KT 10SM CLR 11/08 A2995 RMK AO2
KVVV 230535Z AUTO 13006KT 10SM CLR 12/08 A2995 RMK AO2
KVVV 230515Z AUTO 13006KT 10SM CLR 12/08 A2996 RMK AO2
KVVV 230455Z AUTO 13006KT 10SM CLR 13/08 A2996 RMK AO2
KVVV 230435Z AUTO 14007KT 10SM CLR 13/08 A2996 RMK AO2
KVVV 230415Z AUTO 13007KT 10SM CLR 13/08 A2996 RMK AO2
KVVV 230355Z AUTO 14006KT 10SM CLR 13/08 A2996 RMK AO2
KVVV 230335Z AUTO 14006KT 10SM CLR 13/08 A2997 RMK AO2
KVVV 230315Z AUTO 14006KT 10SM CLR 13/08 A2997 RMK AO2
KVVV 230255Z AUTO 14005KT 10SM CLR 13/08 A2997 RMK AO2
KVVV 230235Z AUTO 14005KT 10SM CLR 14/09 A2997 RMK AO2
KVVV 230215Z AUTO 15005KT 10SM CLR 14/09 A2997 RMK AO2
KVVV 230155Z AUTO 14005KT 10SM CLR 14/09 A2997 RMK AO2
KVVV 230135Z AUTO 14004KT 10SM CLR 16/08 A2997 RMK AO2
KVVV 230115Z AUTO 16004KT 10SM CLR 17/08 A2997 RMK AO2
KVVV 230055Z AUTO 17005KT 10SM CLR 17/08 A2996 RMK AO2
KVVV 230035Z AUTO 18007KT 10SM CLR 18/08 A2996 RMK AO2
KVVV 230015Z AUTO 17007KT 10SM CLR 18/08 A2996 RMK AO2
KVVV 222355Z AUTO 18007KT 10SM CLR 19/08 A2996 RMK AO2
KVVV 222335Z AUTO 19007KT 10SM CLR 20/08 A2997 RMK AO2
KVVV 222315Z AUTO 19006KT 10SM CLR 21/08 A2996 RMK AO2
KVVV 222255Z AUTO 18008KT 10SM CLR 21/08 A2995 RMK AO2
KVVV 222235Z AUTO 19014G19KT 10SM CLR 21/07 A2995 RMK AO2
KVVV 222215Z AUTO 19008G16KT 10SM CLR 22/08 A2996 RMK AO2
KVVV 222155Z AUTO 18010G15KT 10SM CLR 22/08 A2997 RMK AO2
KVVV 222135Z AUTO 18010G16KT 10SM CLR 22/08 A2997 RMK AO2
KVVV 222115Z AUTO 17009G17KT 10SM CLR 22/08 A2997 RMK AO2
KVVV 222055Z AUTO 17010G14KT 10SM CLR 22/08 A2998 RMK AO2
KVVV 222035Z AUTO 16010G18KT 126V186 10SM CLR 21/08 A2999 RMK AO2
KVVV 222015Z AUTO 17011G17KT 10SM CLR 21/08 A3000 RMK AO2
KVVV 221955Z AUTO 18011G17KT 10SM CLR 21/08 A3001 RMK AO2
KVVV 221935Z AUTO 17009G17KT 10SM CLR 21/09 A3002 RMK AO2
KVVV 221915Z AUTO 17011G18KT 10SM CLR 21/08 A3003 RMK AO2
KVVV 221855Z AUTO 18010KT 10SM CLR 19/09 A3004 RMK AO2
KVVV 221835Z AUTO 18011KT 10SM CLR 20/09 A3006 RMK AO2
KVVV 221815Z AUTO 18010G18KT 10SM CLR 19/08 A3007 RMK AO2
KVVV 221755Z AUTO 18011KT 10SM CLR 18/08 A3008 RMK AO2
KVVV 221735Z AUTO 18010G15KT 10SM CLR 18/08 A3008 RMK AO2
KVVV 221715Z AUTO 17011G15KT 10SM CLR 17/08 A3010 RMK AO2
KVVV 221655Z AUTO 17012G17KT 10SM CLR 16/07 A3011 RMK AO2
KVVV 221635Z AUTO 19013G22KT 10SM CLR 16/07 A3012 RMK AO2
KVVV 221615Z AUTO 18010G15KT 166V226 10SM CLR 15/07 A3012 RMK AO2
KVVV 221555Z AUTO 18012G16KT 10SM CLR 13/07 A3013 RMK AO2
KVVV 221535Z AUTO 17009G15KT 10SM SCT110 12/07 A3014 RMK AO2
KVVV 221515Z AUTO 17008KT 10SM SCT120 11/07 A3015 RMK AO2
KVVV 221455Z AUTO 17010G15KT 10SM SCT110 11/07 A3016 RMK AO2
KVVV 221435Z AUTO 17010G15KT 10SM CLR 10/07 A3016 RMK AO2
KVVV 221415Z AUTO 16008KT 10SM CLR 09/06 A3016 RMK AO2